Time;durP1;ratioP1;P1;durP2;ratioP2;P2;SDS_P1;SDS_P2;PMS_P1;PMS_P2;Temp;Humidity;BMP_temperature;BMP_pressure;BME280_temperature;BME280_humidity;BME280_pressure;Samples;Min_cycle;Max_cycle;Signal;HPM_P1;HPM_P2
2021/09/20 00:01:27;;;;;;;;;22.60;21.60;;;;;17.51;52.20;98703.13;6213817;28;96474;-62
2021/09/20 00:04:32;;;;;;;;;24.00;22.00;;;;;17.45;52.06;98696.00;6212917;28;97112;-61
2021/09/20 00:07:36;;;;;;;;;25.20;21.20;;;;;17.42;52.47;98693.84;6212160;28;97408;-60
2021/09/20 00:10:40;;;;;;;;;26.00;24.00;;;;;17.46;51.96;98692.19;6211471;28;99296;-61
2021/09/20 00:13:43;;;;;;;;;23.20;20.20;;;;;17.45;52.03;98688.66;6212390;28;97740;-61
2021/09/20 00:16:47;;;;;;;;;22.00;21.00;;;;;17.45;52.21;98693.28;6213835;28;96949;-61
2021/09/20 00:19:53;;;;;;;;;21.50;21.50;;;;;17.47;52.15;98689.22;6215361;28;96501;-61
2021/09/20 00:22:56;;;;;;;;;25.00;23.00;;;;;17.46;52.28;98694.94;6225661;28;96793;-61
2021/09/20 00:25:59;;;;;;;;;22.60;20.00;;;;;17.44;52.09;98692.50;6213515;28;97072;-61
2021/09/20 00:29:03;;;;;;;;;21.20;19.60;;;;;17.44;52.20;98694.41;6213280;28;96730;-62
2021/09/20 00:32:07;;;;;;;;;23.40;21.80;;;;;17.37;52.18;98686.47;6213426;28;96871;-62
2021/09/20 00:35:12;;;;;;;;;21.50;21.00;;;;;17.39;52.46;98689.75;6213829;28;97465;-60
2021/09/20 00:38:15;;;;;;;;;23.00;21.00;;;;;17.33;52.48;98693.56;6211827;28;97936;-61
2021/09/20 00:41:18;;;;;;;;;22.60;21.00;;;;;17.35;52.64;98694.09;6213416;28;96996;-60
2021/09/20 00:44:21;;;;;;;;;23.50;20.50;;;;;17.36;52.63;98684.00;6211990;28;96846;-59
2021/09/20 00:47:25;;;;;;;;;22.00;20.00;;;;;17.35;52.49;98683.19;6213824;28;97164;-60
2021/09/20 00:50:30;;;;;;;;;22.00;20.25;;;;;17.38;52.64;98688.13;6228610;27;96724;-61
2021/09/20 00:53:33;;;;;;;;;21.00;19.60;;;;;17.43;52.66;98690.03;6225446;28;97491;-61
2021/09/20 00:56:37;;;;;;;;;23.00;21.80;;;;;17.43;52.65;98687.31;6238372;27;96352;-59
2021/09/20 00:59:40;;;;;;;;;24.40;20.40;;;;;17.37;52.81;98686.47;6232056;27;96713;-60
2021/09/20 01:02:44;;;;;;;;;22.60;21.00;;;;;17.41;52.92;98687.56;6213220;28;97448;-61
2021/09/20 01:05:49;;;;;;;;;20.20;19.00;;;;;17.27;52.61;98668.22;6213499;28;96473;-60
2021/09/20 01:08:52;;;;;;;;;20.00;18.00;;;;;17.39;52.81;98689.75;6213242;28;98136;-60
2021/09/20 01:11:56;;;;;;;;;21.00;19.00;;;;;17.39;52.37;98692.50;6213574;28;96564;-59
2021/09/20 01:15:00;;;;;;;;;20.00;18.00;;;;;17.43;52.38;98696.31;6213527;28;98109;-61
2021/09/20 01:18:03;;;;;;;;;22.00;20.00;;;;;17.43;52.21;98696.31;6212536;28;97390;-59
2021/09/20 01:21:08;;;;;;;;;21.50;19.00;;;;;17.44;52.19;98692.50;6213578;28;98340;-61
2021/09/20 01:24:15;;;;;;;;;20.00;19.00;;;;;17.48;52.24;98701.75;6212344;28;98431;-59
2021/09/20 01:27:19;;;;;;;;;20.50;18.00;;;;;17.51;52.07;98693.03;6233612;28;97093;-60
2021/09/20 01:30:23;;;;;;;;;19.60;17.60;;;;;17.52;52.01;98696.56;6237059;28;97130;-59
2021/09/20 01:33:27;;;;;;;;;20.00;19.00;;;;;17.50;52.09;98701.47;6235249;27;99693;-60
2021/09/20 01:36:30;;;;;;;;;20.50;18.25;;;;;17.50;52.11;98702.28;6230380;27;96876;-61
2021/09/20 01:39:37;;;;;;;;;22.00;18.40;;;;;17.48;51.87;98693.59;6211415;28;96558;-61
2021/09/20 01:42:41;;;;;;;;;17.80;16.00;;;;;17.52;51.86;98699.31;6209618;28;96984;-61
2021/09/20 01:45:46;;;;;;;;;19.00;19.00;;;;;17.51;51.81;98697.66;6209574;28;96650;-60
2021/09/20 01:48:50;;;;;;;;;20.40;19.40;;;;;17.51;51.75;98693.03;6211417;28;97373;-60
2021/09/20 01:51:53;;;;;;;;;20.00;18.00;;;;;17.54;51.93;98694.41;6212064;28;97070;-61
2021/09/20 01:54:58;;;;;;;;;19.80;18.00;;;;;17.53;52.01;98692.75;6212955;28;96938;-61
2021/09/20 01:58:02;;;;;;;;;19.40;18.00;;;;;17.57;51.90;98696.59;6212899;28;96792;-60
2021/09/20 02:01:05;;;;;;;;;20.80;17.80;;;;;17.39;52.02;98669.88;6212471;28;97170;-60
2021/09/20 02:04:08;;;;;;;;;22.75;20.00;;;;;17.50;51.86;98690.56;6211409;28;97725;-60
2021/09/20 02:07:12;;;;;;;;;20.00;18.00;;;;;17.48;52.13;98695.50;6212695;28;96935;-62
2021/09/20 02:10:17;;;;;;;;;19.40;18.00;;;;;17.44;51.71;98692.50;6212385;28;97385;-61
2021/09/20 02:13:21;;;;;;;;;16.40;15.00;;;;;17.44;51.76;98694.41;6212954;28;96955;-61
2021/09/20 02:16:24;;;;;;;;;15.60;14.60;;;;;17.39;51.52;98695.22;6211653;28;96599;-60
2021/09/20 02:19:28;;;;;;;;;19.50;15.50;;;;;17.39;51.81;98687.03;6219117;28;96480;-60
2021/09/20 02:22:35;;;;;;;;;18.40;16.80;;;;;17.40;51.44;98691.38;6237738;28;98028;-61
2021/09/20 02:25:41;;;;;;;;;15.50;14.50;;;;;17.37;51.07;98696.56;6236408;28;98718;-62
2021/09/20 02:28:44;;;;;;;;;15.50;15.00;;;;;17.32;51.08;98695.47;6235830;28;97456;-61
2021/09/20 02:31:47;;;;;;;;;15.67;15.67;;;;;17.28;51.12;98699.81;6236300;28;97020;-61
2021/09/20 02:34:50;;;;;;;;;15.00;13.00;;;;;17.28;51.14;98699.00;6236992;27;96389;-61
2021/09/20 02:37:54;;;;;;;;;14.75;13.00;;;;;17.20;50.81;98705.00;6236207;27;97989;-59
2021/09/20 02:40:59;;;;;;;;;14.00;14.00;;;;;17.16;51.08;98699.22;6229077;28;96543;-60
2021/09/20 02:44:03;;;;;;;;;12.80;11.00;;;;;17.16;51.10;98691.06;6219168;28;96453;-59
2021/09/20 02:47:06;;;;;;;;;15.25;15.00;;;;;17.16;50.93;98684.78;6235474;28;96741;-61
2021/09/20 02:50:12;;;;;;;;;15.50;14.00;;;;;17.19;50.94;98684.28;6234688;28;96724;-61
2021/09/20 02:53:15;;;;;;;;;14.00;13.40;;;;;17.18;51.17;98686.19;6237155;27;97007;-61
2021/09/20 02:56:20;;;;;;;;;15.00;14.25;;;;;17.15;51.44;98689.41;6235807;27;96443;-61
2021/09/20 02:59:23;;;;;;;;;15.60;15.00;;;;;17.13;51.66;98696.25;6235826;27;97456;-61
2021/09/20 03:02:27;;;;;;;;;16.60;15.00;;;;;17.15;51.69;98697.59;6234923;27;97144;-59
2021/09/20 03:05:31;;;;;;;;;18.00;16.50;;;;;16.97;51.74;98667.31;6231746;27;96529;-60
2021/09/20 03:08:34;;;;;;;;;15.60;14.40;;;;;17.09;51.75;98690.53;6222146;28;97191;-61
2021/09/20 03:11:39;;;;;;;;;16.00;14.00;;;;;17.11;51.73;98691.06;6221846;27;99555;-60
2021/09/20 03:14:42;;;;;;;;;17.40;16.60;;;;;17.17;51.76;98686.44;6222936;28;97381;-60
2021/09/20 03:17:45;;;;;;;;;18.40;17.00;;;;;17.16;51.58;98696.50;6224109;28;97490;-61
2021/09/20 03:20:48;;;;;;;;;14.50;14.00;;;;;17.11;51.72;98693.78;6226675;28;96407;-60
2021/09/20 03:23:52;;;;;;;;;18.75;17.00;;;;;17.04;51.63;98676.88;6235883;28;97792;-61
2021/09/20 03:26:57;;;;;;;;;17.00;15.60;;;;;17.12;51.62;98689.97;6234985;27;97505;-60
2021/09/20 03:30:00;;;;;;;;;15.75;13.75;;;;;17.15;51.66;98694.88;6210469;28;96447;-60
2021/09/20 03:33:04;;;;;;;;;14.20;14.20;;;;;17.10;51.67;98702.22;6220468;28;98463;-61
2021/09/20 03:36:07;;;;;;;;;19.40;17.00;;;;;17.15;51.53;98686.69;6208355;28;97661;-62
2021/09/20 03:39:10;;;;;;;;;15.00;14.33;;;;;17.18;51.55;98693.53;6209490;28;96408;-59
2021/09/20 03:42:15;;;;;;;;;16.00;15.00;;;;;17.18;51.53;98698.97;6237344;27;97695;-61
2021/09/20 03:45:19;;;;;;;;;14.00;14.00;;;;;17.20;51.45;98692.16;6230464;28;96531;-62
2021/09/20 03:48:22;;;;;;;;;18.25;16.50;;;;;17.26;51.22;98695.72;6233315;27;97359;-61
2021/09/20 03:51:25;;;;;;;;;19.20;17.00;;;;;17.20;51.52;98697.59;6208820;27;99518;-60
2021/09/20 03:54:29;;;;;;;;;17.00;15.00;;;;;17.18;51.60;98705.25;6209076;28;96804;-61
2021/09/20 03:57:33;;;;;;;;;18.00;15.40;;;;;17.13;51.85;98707.94;6232693;28;97098;-61
2021/09/20 04:00:38;;;;;;;;;15.00;14.00;;;;;17.11;51.74;98707.38;6215563;28;97381;-61
2021/09/20 04:03:41;;;;;;;;;18.40;16.40;;;;;17.13;51.97;98712.59;6233867;28;96879;-61
2021/09/20 04:06:45;;;;;;;;;18.00;14.80;;;;;17.16;51.84;98709.31;6224899;27;97698;-61
2021/09/20 04:09:48;;;;;;;;;15.00;14.00;;;;;17.11;51.68;98712.03;6229771;27;97401;-60
2021/09/20 04:12:53;;;;;;;;;16.40;14.60;;;;;17.11;51.78;98710.13;6215063;28;97260;-61
2021/09/20 04:15:57;;;;;;;;;15.00;14.00;;;;;17.11;51.79;98710.13;6230083;27;96801;-61
2021/09/20 04:19:00;;;;;;;;;16.00;14.60;;;;;17.12;51.67;98706.31;6235100;27;97146;-61
2021/09/20 04:22:05;;;;;;;;;17.60;15.80;;;;;17.11;51.46;98720.19;6216841;27;96482;-60
2021/09/20 04:25:09;;;;;;;;;15.00;14.00;;;;;17.11;51.53;98721.00;6238040;28;96479;-60
2021/09/20 04:28:14;;;;;;;;;15.00;14.60;;;;;17.12;51.64;98724.56;6240196;28;96407;-61
2021/09/20 04:31:18;;;;;;;;;17.00;15.25;;;;;16.98;51.43;98701.63;6239406;27;97056;-60
2021/09/20 04:34:23;;;;;;;;;15.00;14.00;;;;;17.12;51.38;98725.38;6229370;27;97409;-60
2021/09/20 04:37:26;;;;;;;;;17.00;16.00;;;;;17.13;51.33;98724.28;6232998;28;97493;-62
2021/09/20 04:40:29;;;;;;;;;15.00;14.00;;;;;17.04;51.55;98720.47;6224064;27;100613;-62
2021/09/20 04:43:34;;;;;;;;;17.00;15.40;;;;;17.06;51.71;98723.72;6237862;27;96998;-60
2021/09/20 04:46:38;;;;;;;;;18.00;16.00;;;;;17.05;51.68;98726.72;6238263;28;97228;-60
2021/09/20 04:49:41;;;;;;;;;15.40;15.00;;;;;17.05;51.49;98726.72;6238598;28;97132;-62
2021/09/20 04:52:45;;;;;;;;;16.00;14.00;;;;;17.04;51.99;98727.81;6238497;27;97004;-60
2021/09/20 04:55:48;;;;;;;;;15.00;14.00;;;;;17.09;51.59;98725.09;6237454;27;97453;-59
2021/09/20 04:58:53;;;;;;;;;14.00;14.00;;;;;17.12;51.69;98725.38;6233432;27;96793;-62
2021/09/20 05:01:56;;;;;;;;;14.40;13.00;;;;;17.13;51.44;98729.75;6230257;28;96551;-61
2021/09/20 05:04:59;;;;;;;;;17.00;15.50;;;;;17.15;51.35;98735.72;6229580;28;96735;-61
2021/09/20 05:08:03;;;;;;;;;14.00;12.60;;;;;17.14;51.35;98741.47;6221712;27;97491;-62
2021/09/20 05:11:06;;;;;;;;;17.00;14.00;;;;;17.17;51.11;98744.47;6233907;27;97259;-61
2021/09/20 05:14:11;;;;;;;;;14.75;13.50;;;;;17.20;51.26;98749.38;6226048;28;97305;-61
2021/09/20 05:17:14;;;;;;;;;14.00;13.67;;;;;17.21;51.08;98747.47;6219284;28;97928;-61
2021/09/20 05:20:20;;;;;;;;;13.00;13.00;;;;;17.25;51.40;98754.03;6236763;27;96884;-60
2021/09/20 05:23:24;;;;;;;;;14.00;13.60;;;;;17.25;50.97;98757.56;6227730;27;97029;-60
2021/09/20 05:26:27;;;;;;;;;15.40;14.00;;;;;17.30;50.50;98754.03;6231663;27;96760;-62
2021/09/20 05:29:32;;;;;;;;;14.00;13.50;;;;;17.32;50.68;98752.69;6235959;28;96704;-60
2021/09/20 05:32:35;;;;;;;;;13.00;12.00;;;;;17.40;50.36;98755.97;6222860;28;97477;-61
2021/09/20 05:35:39;;;;;;;;;15.00;14.20;;;;;17.38;50.72;98760.88;6217205;28;97237;-61
2021/09/20 05:38:43;;;;;;;;;16.00;14.00;;;;;17.40;50.39;98767.69;6217230;27;97463;-60
2021/09/20 05:41:46;;;;;;;;;13.60;11.60;;;;;17.34;50.42;98757.88;6219523;28;97492;-61
2021/09/20 05:44:53;;;;;;;;;14.50;13.00;;;;;17.38;50.50;98758.16;6210993;28;97009;-62
2021/09/20 05:47:56;;;;;;;;;13.00;12.00;;;;;17.39;50.28;98757.88;6228295;28;96779;-60
2021/09/20 05:51:00;;;;;;;;;12.40;11.00;;;;;17.43;50.06;98758.97;6221205;28;97484;-61
2021/09/20 05:54:03;;;;;;;;;11.00;11.00;;;;;17.48;49.98;98755.44;6225626;27;97066;-62
2021/09/20 05:57:06;;;;;;;;;13.80;12.40;;;;;17.47;50.00;98757.34;6221271;28;97385;-61
2021/09/20 06:00:13;;;;;;;;;12.00;11.80;;;;;17.44;50.03;98757.91;6224215;28;97540;-61
2021/09/20 06:03:16;;;;;;;;;13.00;12.00;;;;;17.51;50.38;98760.34;6234083;27;99546;-61
2021/09/20 06:06:19;;;;;;;;;13.00;12.00;;;;;17.53;50.06;98755.47;6226565;28;97529;-62
2021/09/20 06:09:23;;;;;;;;;10.60;9.20;;;;;17.58;50.01;98764.47;6228296;28;96451;-62
2021/09/20 06:12:26;;;;;;;;;9.25;9.25;;;;;17.66;49.22;98766.69;6222943;28;96587;-62
2021/09/20 06:15:31;;;;;;;;;10.00;10.00;;;;;17.65;49.30;98765.03;6220123;28;96807;-62
2021/09/20 06:18:35;;;;;;;;;12.00;12.00;;;;;17.73;48.76;98760.97;6223234;28;96606;-59
2021/09/20 06:21:38;;;;;;;;;14.00;12.50;;;;;17.74;48.88;98770.78;6236274;27;97136;-61
2021/09/20 06:24:42;;;;;;;;;11.20;10.20;;;;;17.70;48.79;98766.94;6224559;27;97303;-62
2021/09/20 06:27:45;;;;;;;;;10.80;9.80;;;;;17.68;48.70;98772.69;6221393;28;98573;-62
2021/09/20 06:30:50;;;;;;;;;10.00;10.00;;;;;17.65;48.67;98775.13;6225974;28;97534;-59
2021/09/20 06:33:53;;;;;;;;;10.00;8.80;;;;;17.54;49.23;98762.56;6227859;28;97495;-60
2021/09/20 06:36:56;;;;;;;;;12.00;11.00;;;;;17.56;48.77;98774.81;6217519;28;97660;-59
2021/09/20 06:40:00;;;;;;;;;12.00;9.00;;;;;17.54;48.54;98777.00;6222331;28;97591;-59
2021/09/20 06:43:04;;;;;;;;;10.00;9.50;;;;;17.48;48.54;98778.06;6218312;27;97410;-60
2021/09/20 06:46:09;;;;;;;;;8.00;8.00;;;;;17.51;48.43;98777.53;6221630;27;97410;-60
2021/09/20 06:49:14;;;;;;;;;9.40;8.80;;;;;17.53;48.46;98785.44;6228835;27;97573;-60
2021/09/20 06:52:18;;;;;;;;;9.00;8.60;;;;;17.50;48.78;98778.59;6216007;28;96659;-61
2021/09/20 06:55:22;;;;;;;;;9.60;8.60;;;;;17.47;48.88;98779.16;6234605;28;98116;-61
2021/09/20 06:58:25;;;;;;;;;10.00;9.20;;;;;17.49;48.80;98790.63;6227119;28;97125;-60
2021/09/20 07:01:31;;;;;;;;;11.00;10.00;;;;;17.49;48.40;98777.00;6231157;28;97083;-59
2021/09/20 07:04:34;;;;;;;;;9.00;9.00;;;;;17.56;48.10;98791.16;6216000;28;97296;-61
2021/09/20 07:08:31;;;;;;;;;11.00;10.00;;;;;17.68;48.05;98788.25;6279274;27;97144;-62
2021/09/20 07:11:34;;;;;;;;;9.00;9.00;;;;;17.74;48.35;98784.41;6231272;28;96562;-62
2021/09/20 07:14:38;;;;;;;;;11.00;10.00;;;;;17.79;47.86;98781.69;6231545;27;97325;-61
2021/09/20 07:17:41;;;;;;;;;12.00;10.00;;;;;17.95;47.73;98801.63;6229281;28;97404;-61
2021/09/20 07:20:46;;;;;;;;;11.00;9.00;;;;;18.07;48.04;98796.72;6232223;28;97005;-62
2021/09/20 07:23:51;;;;;;;;;11.40;10.40;;;;;17.98;47.35;98779.28;6230107;28;98005;-60
2021/09/20 07:26:54;;;;;;;;;11.40;10.40;;;;;18.16;47.33;98809.56;6197207;28;97436;-61
2021/09/20 07:29:57;;;;;;;;;9.00;8.00;;;;;18.14;47.34;98811.72;6190318;28;97484;-59
2021/09/20 07:33:01;;;;;;;;;11.00;9.80;;;;;18.09;47.24;98806.25;6203340;28;97997;-61
2021/09/20 07:36:05;;;;;;;;;12.00;11.00;;;;;18.17;46.92;98813.09;6191954;28;96523;-62
2021/09/20 07:39:09;;;;;;;;;11.60;10.00;;;;;18.22;45.44;98809.56;6190665;28;96585;-60
2021/09/20 07:42:12;;;;;;;;;11.00;10.00;;;;;18.32;44.56;98807.66;6196847;28;98195;-60
2021/09/20 07:45:16;;;;;;;;;11.00;10.00;;;;;18.50;44.72;98814.44;6201859;28;97338;-62
2021/09/20 07:48:19;;;;;;;;;12.00;11.00;;;;;18.56;44.46;98803.28;6207281;28;97433;-62
2021/09/20 07:51:26;;;;;;;;;11.00;11.00;;;;;18.57;44.16;98796.72;6190471;28;98016;-61
2021/09/20 07:54:31;;;;;;;;;14.00;12.00;;;;;18.70;43.54;98805.44;6198126;28;96517;-62
2021/09/20 07:57:34;;;;;;;;;10.60;10.00;;;;;18.71;42.95;98809.81;6197350;28;96790;-61
2021/09/20 08:00:40;;;;;;;;;9.00;9.00;;;;;18.77;43.22;98817.69;6196185;28;96894;-61
2021/09/20 08:03:43;;;;;;;;;10.60;10.00;;;;;18.91;42.84;98820.69;6199475;28;97474;-61
2021/09/20 08:06:47;;;;;;;;;12.80;11.00;;;;;18.88;42.37;98802.94;6196056;28;97879;-61
2021/09/20 08:09:52;;;;;;;;;9.00;9.00;;;;;19.11;42.75;98831.53;6188568;28;97503;-61
2021/09/20 08:12:55;;;;;;;;;11.20;10.20;;;;;19.24;42.39;98830.97;6189230;28;96665;-62
2021/09/20 08:15:58;;;;;;;;;8.20;8.00;;;;;19.32;42.66;98832.28;6185779;28;96874;-60
2021/09/20 08:19:01;;;;;;;;;9.00;9.00;;;;;19.29;41.95;98836.41;6192438;28;96922;-64
2021/09/20 08:22:05;;;;;;;;;11.60;10.40;;;;;19.30;42.29;98843.50;6179413;28;97381;-61
2021/09/20 08:25:10;;;;;;;;;10.80;10.00;;;;;19.26;43.11;98841.59;6181604;28;96812;-63
2021/09/20 08:28:13;;;;;;;;;9.40;9.00;;;;;19.23;43.50;98848.44;6180868;28;97172;-62
2021/09/20 08:31:17;;;;;;;;;8.00;8.00;;;;;19.19;44.22;98857.50;6173916;28;97658;-62
2021/09/20 08:34:20;;;;;;;;;9.25;9.00;;;;;19.10;44.41;98850.97;6180679;28;97464;-61
2021/09/20 08:37:24;;;;;;;;;8.60;8.00;;;;;19.13;44.60;98850.41;6183606;28;97531;-61
2021/09/20 08:40:29;;;;;;;;;9.00;8.00;;;;;18.96;43.95;98853.47;6189670;28;96891;-62
2021/09/20 08:43:33;;;;;;;;;9.00;8.00;;;;;18.97;44.43;98850.44;6172965;28;98522;-61
2021/09/20 08:46:38;;;;;;;;;8.00;7.20;;;;;18.90;44.58;98852.66;6175764;28;96855;-61
2021/09/20 08:49:42;;;;;;;;;9.00;8.00;;;;;18.73;44.28;98852.13;6180852;28;97654;-61
2021/09/20 08:52:46;;;;;;;;;10.00;10.00;;;;;18.64;43.86;98864.69;6179776;28;97031;-61
2021/09/20 08:55:51;;;;;;;;;6.00;6.00;;;;;18.50;43.58;98863.59;6172746;28;97623;-63
2021/09/20 08:58:54;;;;;;;;;7.80;7.20;;;;;18.43;43.94;98863.03;6172841;28;96509;-61
2021/09/20 09:01:58;;;;;;;;;9.00;9.00;;;;;18.34;44.24;98861.94;6178194;28;99502;-60
2021/09/20 09:05:18;;;;;;;;;8.00;7.00;;;;;18.29;44.07;98870.94;6189384;28;97382;-63
2021/09/20 09:08:32;;;;;;;;;9.00;8.00;;;;;18.21;43.84;98881.59;6186182;28;97975;-62
2021/09/20 09:11:36;;;;;;;;;7.40;6.00;;;;;18.16;43.34;98891.41;6199652;28;97444;-62
2021/09/20 09:14:42;;;;;;;;;8.00;7.00;;;;;17.94;43.56;98887.25;6176910;28;98003;-61
2021/09/20 09:17:48;;;;;;;;;8.50;7.50;;;;;17.88;43.85;98889.19;6172634;28;96410;-62
2021/09/20 09:20:51;;;;;;;;;7.80;7.80;;;;;17.81;43.58;98874.97;6172909;28;96698;-62
2021/09/20 09:23:59;;;;;;;;;8.80;7.00;;;;;17.75;43.73;98876.84;6180623;28;97211;-60
2021/09/20 09:27:05;;;;;;;;;8.67;7.00;;;;;17.68;43.93;98881.75;6180162;28;97240;-63
2021/09/20 09:30:12;;;;;;;;;10.00;8.25;;;;;17.66;44.38;98883.09;6202195;28;96966;-62
2021/09/20 09:33:19;;;;;;;;;8.20;7.20;;;;;17.56;44.22;98888.47;6188357;28;97447;-60
2021/09/20 09:36:32;;;;;;;;;9.00;9.00;;;;;17.47;44.51;98885.44;6176999;28;96549;-60
2021/09/20 09:39:35;;;;;;;;;9.00;8.00;;;;;17.43;44.33;98865.28;6180457;28;96449;-60
2021/09/20 09:42:40;;;;;;;;;7.50;7.25;;;;;17.64;44.03;98888.81;6177074;28;97576;-61
2021/09/20 09:45:43;;;;;;;;;9.00;8.00;;;;;17.73;44.36;98900.03;6182133;28;97430;-61
2021/09/20 09:48:47;;;;;;;;;7.40;7.00;;;;;17.77;43.80;98895.69;6178797;28;96554;-60
2021/09/20 09:51:57;;;;;;;;;9.00;9.00;;;;;17.88;43.70;98900.09;6170812;28;96660;-62
2021/09/20 09:55:02;;;;;;;;;10.00;10.00;;;;;18.00;43.28;98900.66;6171454;28;97426;-62
2021/09/20 09:58:15;;;;;;;;;8.80;8.00;;;;;18.03;43.62;98883.72;6177081;28;99621;-61
2021/09/20 10:01:23;;;;;;;;;9.80;8.80;;;;;18.25;43.10;98893.59;6178974;28;97043;-60
2021/09/20 10:04:30;;;;;;;;;8.75;7.00;;;;;18.35;43.41;98899.06;6175810;28;96787;-61
2021/09/20 10:07:37;;;;;;;;;8.00;7.80;;;;;18.43;43.30;98893.06;6182571;28;97578;-60
2021/09/20 10:10:41;;;;;;;;;9.00;9.00;;;;;18.40;43.00;98896.34;6159593;28;98295;-60
2021/09/20 10:13:49;;;;;;;;;10.00;7.20;;;;;18.40;42.08;98904.53;6180141;28;96913;-62
2021/09/20 10:16:54;;;;;;;;;8.00;8.00;;;;;18.25;41.89;98904.50;6188565;28;96574;-63
2021/09/20 10:19:58;;;;;;;;;8.40;7.00;;;;;18.12;42.60;98917.59;6173067;28;97489;-62
2021/09/20 10:23:02;;;;;;;;;8.00;8.00;;;;;17.97;43.13;98912.09;6181422;28;97398;-60
2021/09/20 10:26:05;;;;;;;;;10.00;9.00;;;;;17.91;43.21;98915.09;6177925;28;96554;-61
2021/09/20 10:29:14;;;;;;;;;8.00;7.00;;;;;17.85;41.82;98916.16;6179522;28;97287;-61
2021/09/20 10:32:18;;;;;;;;;9.00;8.40;;;;;17.85;42.09;98919.69;6174446;28;96968;-62
2021/09/20 10:35:24;;;;;;;;;7.00;7.00;;;;;17.80;41.72;98908.78;6171716;28;96577;-60
2021/09/20 10:38:30;;;;;;;;;7.00;6.80;;;;;17.77;41.54;98922.94;6185049;28;97982;-60
2021/09/20 10:41:38;;;;;;;;;8.00;7.40;;;;;17.84;41.51;98920.78;6186184;28;97885;-61
2021/09/20 10:44:42;;;;;;;;;9.00;9.00;;;;;18.03;41.79;98913.75;6173147;28;96693;-61
2021/09/20 10:47:48;;;;;;;;;9.00;8.00;;;;;18.15;41.85;98913.50;6179111;28;97580;-60
2021/09/20 10:50:55;;;;;;;;;9.00;8.20;;;;;18.18;40.98;98907.50;6176133;28;99549;-60
2021/09/20 10:54:21;;;;;;;;;7.00;7.00;;;;;18.43;40.26;98923.09;6176809;28;96434;-60
2021/09/20 10:57:24;;;;;;;;;7.20;7.00;;;;;18.64;40.37;98913.03;6177788;28;96729;-61
2021/09/20 11:00:29;;;;;;;;;8.00;7.00;;;;;18.81;39.62;98917.13;6184219;28;97505;-62
2021/09/20 11:03:43;;;;;;;;;6.00;6.00;;;;;18.87;39.03;98915.19;6180196;28;98192;-60
2021/09/20 11:07:05;;;;;;;;;6.00;6.00;;;;;18.86;39.73;98924.50;6184003;28;97326;-59
2021/09/20 11:10:09;;;;;;;;;8.00;6.40;;;;;18.78;39.72;98925.03;6181516;28;97545;-62
2021/09/20 11:13:13;;;;;;;;;7.00;7.00;;;;;18.63;39.80;98919.56;6185213;28;97670;-61
2021/09/20 11:16:46;;;;;;;;;6.20;5.80;;;;;18.77;40.13;98928.84;6176890;28;98066;-61
2021/09/20 11:19:52;;;;;;;;;6.80;6.00;;;;;18.86;38.92;98933.50;6174174;28;96846;-62
2021/09/20 11:23:14;;;;;;;;;6.00;5.00;;;;;19.53;37.55;98934.22;6182286;28;97486;-62
2021/09/20 11:26:20;;;;;;;;;5.00;5.00;;;;;19.77;38.59;98930.56;6179558;28;96640;-62
2021/09/20 11:29:24;;;;;;;;;6.60;6.00;;;;;19.88;38.43;98940.38;6180529;28;99613;-61
2021/09/20 11:32:28;;;;;;;;;7.00;6.00;;;;;19.82;38.64;98949.72;6179771;28;98600;-61
2021/09/20 11:35:34;;;;;;;;;5.50;5.00;;;;;19.75;38.30;98942.88;6178837;28;98302;-61
2021/09/20 11:38:37;;;;;;;;;6.60;6.60;;;;;19.47;36.75;98949.81;6179843;28;97276;-63
2021/09/20 11:41:42;;;;;;;;;4.00;4.00;;;;;19.22;36.45;98947.13;6178763;28;97127;-59
2021/09/20 11:44:49;;;;;;;;;3.00;3.00;;;;;19.14;36.76;98955.88;6197693;28;96837;-61
2021/09/20 11:47:56;;;;;;;;;4.00;3.40;;;;;18.96;36.56;98954.56;6164375;28;98249;-61
2021/09/20 11:51:02;;;;;;;;;2.00;2.00;;;;;18.79;36.50;98960.28;6179925;28;96610;-61
2021/09/20 11:54:06;;;;;;;;;4.00;4.00;;;;;18.60;36.69;98959.19;6177640;28;96836;-59
2021/09/20 11:57:12;;;;;;;;;4.00;4.00;;;;;18.58;37.20;98962.19;6185411;28;96614;-61
2021/09/20 12:00:17;;;;;;;;;3.25;3.00;;;;;18.50;37.14;98959.13;6186919;28;96744;-62
2021/09/20 12:03:24;;;;;;;;;3.00;2.00;;;;;18.30;37.01;98938.09;6174806;28;97086;-60
2021/09/20 12:06:31;;;;;;;;;3.00;3.00;;;;;18.65;37.11;98970.09;6185304;28;96628;-59
2021/09/20 12:09:36;;;;;;;;;2.00;2.00;;;;;19.02;37.38;98972.56;6183848;28;96601;-59
2021/09/20 12:12:40;;;;;;;;;2.00;2.00;;;;;19.33;35.98;98976.91;6184037;28;97570;-60
2021/09/20 12:15:45;;;;;;;;;3.00;2.00;;;;;19.49;35.44;98963.22;6183399;28;97565;-62
2021/09/20 12:18:52;;;;;;;;;2.20;2.00;;;;;19.60;35.46;98964.81;6184067;28;97975;-62
2021/09/20 12:22:02;;;;;;;;;2.00;2.00;;;;;19.61;35.43;98966.47;6180366;28;97438;-63
2021/09/20 12:25:50;;;;;;;;;1.00;1.00;;;;;19.57;34.98;98973.59;6175010;28;97151;-62
2021/09/20 12:28:56;;;;;;;;;2.20;2.20;;;;;19.51;35.30;98967.31;6162709;28;97986;-62
2021/09/20 12:31:59;;;;;;;;;2.00;2.00;;;;;19.54;35.65;98972.25;6185100;28;96845;-60
2021/09/20 12:35:03;;;;;;;;;3.00;2.00;;;;;19.60;35.34;98975.75;6185528;28;97123;-60
2021/09/20 12:38:26;;;;;;;;;3.00;2.80;;;;;19.66;34.90;98977.38;6185349;28;96682;-61
2021/09/20 12:41:35;;;;;;;;;2.00;2.00;;;;;19.64;34.66;98974.94;6182706;28;96602;-61
2021/09/20 12:44:41;;;;;;;;;2.00;2.00;;;;;19.60;34.99;98978.50;6188022;28;96717;-60
2021/09/20 12:47:44;;;;;;;;;2.40;2.00;;;;;19.54;35.06;98999.59;6185671;28;97541;-60
2021/09/20 12:50:49;;;;;;;;;3.40;2.00;;;;;19.48;35.16;98994.41;6184560;28;97134;-60
2021/09/20 12:53:55;;;;;;;;;5.00;4.00;;;;;19.41;35.77;98990.00;6184214;28;97259;-61
2021/09/20 12:57:15;;;;;;;;;2.00;2.00;;;;;19.33;35.90;98984.28;6186269;28;97601;-62
2021/09/20 13:00:18;;;;;;;;;3.00;2.40;;;;;19.27;35.61;98990.84;6186903;28;97157;-60
2021/09/20 13:03:31;;;;;;;;;2.00;2.00;;;;;19.27;36.15;98988.09;6185916;28;97490;-62
2021/09/20 13:06:36;;;;;;;;;3.00;2.20;;;;;19.23;36.30;98987.03;6186260;28;97162;-62
2021/09/20 13:09:43;;;;;;;;;3.00;3.00;;;;;19.13;36.40;98976.94;6185004;28;96662;-62
2021/09/20 13:12:50;;;;;;;;;3.00;3.00;;;;;19.13;36.56;98987.84;6183895;28;97454;-62
2021/09/20 13:15:53;;;;;;;;;3.00;3.00;;;;;19.11;36.87;98983.78;6185688;28;96847;-64
2021/09/20 13:19:07;;;;;;;;;3.00;3.00;;;;;19.13;36.87;98992.50;6187397;28;97065;-62
2021/09/20 13:22:11;;;;;;;;;2.40;2.40;;;;;19.14;36.73;98992.25;6189234;28;96562;-63
2021/09/20 13:25:38;;;;;;;;;3.00;3.00;;;;;19.15;36.72;98995.78;6178865;28;97731;-61
2021/09/20 13:28:41;;;;;;;;;3.00;2.25;;;;;19.00;36.59;98972.84;6183217;28;96677;-62
2021/09/20 13:31:44;;;;;;;;;3.00;2.60;;;;;19.03;36.76;98985.94;6185313;28;96860;-61
2021/09/20 13:34:48;;;;;;;;;3.00;3.00;;;;;18.92;36.72;98992.50;6176883;28;96468;-62
2021/09/20 13:37:52;;;;;;;;;3.00;3.00;;;;;18.93;36.57;98998.78;6179973;28;97474;-63
2021/09/20 13:40:59;;;;;;;;;3.60;3.00;;;;;18.86;36.86;98996.31;6180180;28;98107;-61
2021/09/20 13:44:02;;;;;;;;;4.25;4.00;;;;;18.88;37.37;99002.34;6173212;28;97166;-62
2021/09/20 13:47:06;;;;;;;;;3.75;3.00;;;;;18.82;37.72;99008.06;6181116;28;96691;-62
2021/09/20 13:50:10;;;;;;;;;3.00;2.00;;;;;18.39;37.35;98941.09;6188250;28;97389;-61
2021/09/20 13:53:14;;;;;;;;;3.00;3.00;;;;;18.79;37.52;99001.25;6186026;28;96829;-60
2021/09/20 13:56:20;;;;;;;;;3.25;2.25;;;;;18.77;37.86;99000.69;6174599;28;97029;-61
2021/09/20 13:59:23;;;;;;;;;5.00;4.00;;;;;18.77;37.25;99006.16;6170809;28;97692;-61
2021/09/20 14:02:26;;;;;;;;;4.00;4.00;;;;;18.74;38.05;99005.88;6174829;28;97420;-61
2021/09/20 14:05:30;;;;;;;;;4.75;4.75;;;;;18.77;38.22;98997.97;6179691;28;98066;-62
2021/09/20 14:08:34;;;;;;;;;3.00;3.00;;;;;18.79;38.14;99001.25;6190153;28;96625;-63
2021/09/20 14:11:39;;;;;;;;;3.40;3.00;;;;;18.72;38.31;98999.88;6153133;28;99071;-61
2021/09/20 14:14:42;;;;;;;;;4.60;4.60;;;;;18.81;38.45;98999.09;6173297;28;97410;-63
2021/09/20 14:17:47;;;;;;;;;4.00;3.60;;;;;18.74;37.87;98995.78;6185332;28;96705;-60
2021/09/20 14:20:50;;;;;;;;;4.00;3.00;;;;;18.73;38.71;99006.97;6172209;28;96385;-61